sensor_id;sensor_type;location;lat;lon;timestamp;pressure;altitude;pressure_sealevel;temperature
73894;BMP280;62699;50.534;12.784;2022-12-11T00:03:01;95446.59;;;-2.35
73894;BMP280;62699;50.534;12.784;2022-12-11T00:08:01;95445.13;;;-2.36
73894;BMP280;62699;50.534;12.784;2022-12-11T00:13:02;95439.84;;;-2.36
73894;BMP280;62699;50.534;12.784;2022-12-11T00:18:02;95442.81;;;-2.34
73894;BMP280;62699;50.534;12.784;2022-12-11T00:23:04;95446.47;;;-2.32
73894;BMP280;62699;50.534;12.784;2022-12-11T00:28:04;95437.81;;;-2.32
73894;BMP280;62699;50.534;12.784;2022-12-11T00:33:04;95436.66;;;-2.31
73894;BMP280;62699;50.534;12.784;2022-12-11T00:38:05;95433.72;;;-2.33
73894;BMP280;62699;50.534;12.784;2022-12-11T00:43:05;95434.59;;;-2.36
73894;BMP280;62699;50.534;12.784;2022-12-11T00:48:08;95443.41;;;-2.30
73894;BMP280;62699;50.534;12.784;2022-12-11T00:53:08;95441.34;;;-2.35
73894;BMP280;62699;50.534;12.784;2022-12-11T00:58:09;95443.53;;;-2.34
73894;BMP280;62699;50.534;12.784;2022-12-11T01:03:12;95445.00;;;-2.33
73894;BMP280;62699;50.534;12.784;2022-12-11T01:08:13;95448.78;;;-2.34
73894;BMP280;62699;50.534;12.784;2022-12-11T01:13:13;95449.13;;;-2.32
73894;BMP280;62699;50.534;12.784;2022-12-11T01:18:14;95453.34;;;-2.34
73894;BMP280;62699;50.534;12.784;2022-12-11T01:23:15;95464.31;;;-2.36
73894;BMP280;62699;50.534;12.784;2022-12-11T01:28:15;95466.09;;;-2.33
73894;BMP280;62699;50.534;12.784;2022-12-11T01:33:15;95465.78;;;-2.35
73894;BMP280;62699;50.534;12.784;2022-12-11T01:38:16;95465.06;;;-2.35
73894;BMP280;62699;50.534;12.784;2022-12-11T01:43:16;95471.47;;;-2.36
73894;BMP280;62699;50.534;12.784;2022-12-11T01:48:19;95469.16;;;-2.34
73894;BMP280;62699;50.534;12.784;2022-12-11T01:53:24;95472.97;;;-2.35
73894;BMP280;62699;50.534;12.784;2022-12-11T01:58:31;95470.50;;;-2.30
73894;BMP280;62699;50.534;12.784;2022-12-11T02:03:32;95467.56;;;-2.32
73894;BMP280;62699;50.534;12.784;2022-12-11T02:08:33;95471.78;;;-2.34
73894;BMP280;62699;50.534;12.784;2022-12-11T02:18:52;95462.94;;;-2.40
73894;BMP280;62699;50.534;12.784;2022-12-11T02:24:05;95459.88;;;-2.51
73894;BMP280;62699;50.534;12.784;2022-12-11T02:29:17;95456.06;;;-2.50
73894;BMP280;62699;50.534;12.784;2022-12-11T02:34:27;95459.78;;;-2.48
73894;BMP280;62699;50.534;12.784;2022-12-11T02:39:28;95450.19;;;-2.55
73894;BMP280;62699;50.534;12.784;2022-12-11T02:44:32;95441.84;;;-2.53
73894;BMP280;62699;50.534;12.784;2022-12-11T02:49:33;95441.44;;;-2.51
73894;BMP280;62699;50.534;12.784;2022-12-11T02:54:35;95440.28;;;-2.50
73894;BMP280;62699;50.534;12.784;2022-12-11T02:59:39;95437.97;;;-2.48
73894;BMP280;62699;50.534;12.784;2022-12-11T03:04:41;95444.72;;;-2.47
73894;BMP280;62699;50.534;12.784;2022-12-11T03:09:44;95442.47;;;-2.62
73894;BMP280;62699;50.534;12.784;2022-12-11T03:14:45;95445.03;;;-2.58
73894;BMP280;62699;50.534;12.784;2022-12-11T03:19:54;95444.88;;;-2.67
73894;BMP280;62699;50.534;12.784;2022-12-11T03:25:00;95443.63;;;-2.75
73894;BMP280;62699;50.534;12.784;2022-12-11T03:30:09;95448.75;;;-2.84
73894;BMP280;62699;50.534;12.784;2022-12-11T03:35:12;95441.81;;;-2.91
73894;BMP280;62699;50.534;12.784;2022-12-11T03:40:16;95443.06;;;-2.83
73894;BMP280;62699;50.534;12.784;2022-12-11T03:45:19;95444.22;;;-2.84
73894;BMP280;62699;50.534;12.784;2022-12-11T03:50:20;95437.47;;;-2.85
73894;BMP280;62699;50.534;12.784;2022-12-11T03:55:22;95441.09;;;-2.79
73894;BMP280;62699;50.534;12.784;2022-12-11T04:00:23;95458.78;;;-2.79
73894;BMP280;62699;50.534;12.784;2022-12-11T04:05:23;95454.56;;;-2.90
73894;BMP280;62699;50.534;12.784;2022-12-11T04:10:24;95461.81;;;-2.94
73894;BMP280;62699;50.534;12.784;2022-12-11T04:15:24;95452.28;;;-3.04
73894;BMP280;62699;50.534;12.784;2022-12-11T04:20:24;95460.09;;;-3.00
73894;BMP280;62699;50.534;12.784;2022-12-11T04:25:43;95461.97;;;-3.01
73894;BMP280;62699;50.534;12.784;2022-12-11T04:30:48;95458.28;;;-3.03
73894;BMP280;62699;50.534;12.784;2022-12-11T04:35:49;95454.63;;;-3.06
73894;BMP280;62699;50.534;12.784;2022-12-11T04:40:56;95449.44;;;-3.09
73894;BMP280;62699;50.534;12.784;2022-12-11T04:46:11;95450.88;;;-3.21
73894;BMP280;62699;50.534;12.784;2022-12-11T04:51:13;95453.56;;;-3.25
73894;BMP280;62699;50.534;12.784;2022-12-11T04:56:14;95454.41;;;-3.28
73894;BMP280;62699;50.534;12.784;2022-12-11T05:01:18;95446.28;;;-3.33
73894;BMP280;62699;50.534;12.784;2022-12-11T05:06:18;95440.28;;;-3.34
73894;BMP280;62699;50.534;12.784;2022-12-11T05:11:19;95437.97;;;-3.32
73894;BMP280;62699;50.534;12.784;2022-12-11T05:16:19;95432.72;;;-3.32
73894;BMP280;62699;50.534;12.784;2022-12-11T05:21:19;95428.28;;;-3.35
73894;BMP280;62699;50.534;12.784;2022-12-11T05:26:20;95433.66;;;-3.38
73894;BMP280;62699;50.534;12.784;2022-12-11T05:31:22;95423.31;;;-3.45
73894;BMP280;62699;50.534;12.784;2022-12-11T05:36:28;95421.84;;;-3.46
73894;BMP280;62699;50.534;12.784;2022-12-11T05:41:30;95419.94;;;-3.46
73894;BMP280;62699;50.534;12.784;2022-12-11T05:46:30;95420.44;;;-3.51
73894;BMP280;62699;50.534;12.784;2022-12-11T05:51:31;95414.38;;;-3.48
73894;BMP280;62699;50.534;12.784;2022-12-11T05:56:34;95416.00;;;-3.54
73894;BMP280;62699;50.534;12.784;2022-12-11T06:01:35;95423.00;;;-3.47
73894;BMP280;62699;50.534;12.784;2022-12-11T06:06:36;95417.31;;;-3.46
73894;BMP280;62699;50.534;12.784;2022-12-11T06:11:37;95423.63;;;-3.43
73894;BMP280;62699;50.534;12.784;2022-12-11T06:16:38;95416.16;;;-3.45
73894;BMP280;62699;50.534;12.784;2022-12-11T06:21:38;95420.09;;;-3.53
73894;BMP280;62699;50.534;12.784;2022-12-11T06:26:38;95427.16;;;-3.50
73894;BMP280;62699;50.534;12.784;2022-12-11T06:31:39;95433.25;;;-3.53
73894;BMP280;62699;50.534;12.784;2022-12-11T06:36:39;95434.59;;;-3.61
73894;BMP280;62699;50.534;12.784;2022-12-11T06:41:39;95439.53;;;-3.63
73894;BMP280;62699;50.534;12.784;2022-12-11T06:46:39;95445.94;;;-3.64
73894;BMP280;62699;50.534;12.784;2022-12-11T06:51:40;95437.00;;;-3.67
73894;BMP280;62699;50.534;12.784;2022-12-11T06:56:40;95444.78;;;-3.63
73894;BMP280;62699;50.534;12.784;2022-12-11T07:01:40;95443.41;;;-3.68
73894;BMP280;62699;50.534;12.784;2022-12-11T07:06:41;95444.47;;;-3.65
73894;BMP280;62699;50.534;12.784;2022-12-11T07:11:41;95454.00;;;-3.71
73894;BMP280;62699;50.534;12.784;2022-12-11T07:16:42;95460.69;;;-3.67
73894;BMP280;62699;50.534;12.784;2022-12-11T07:21:42;95464.03;;;-3.66
73894;BMP280;62699;50.534;12.784;2022-12-11T07:26:42;95465.09;;;-3.80
73894;BMP280;62699;50.534;12.784;2022-12-11T07:31:43;95470.69;;;-3.78
73894;BMP280;62699;50.534;12.784;2022-12-11T07:36:43;95474.22;;;-3.68
73894;BMP280;62699;50.534;12.784;2022-12-11T07:41:43;95468.66;;;-3.70
73894;BMP280;62699;50.534;12.784;2022-12-11T07:46:45;95476.03;;;-3.65
73894;BMP280;62699;50.534;12.784;2022-12-11T07:51:58;95475.84;;;-3.42
73894;BMP280;62699;50.534;12.784;2022-12-11T07:56:58;95479.25;;;-3.29
73894;BMP280;62699;50.534;12.784;2022-12-11T08:01:59;95482.06;;;-3.19
73894;BMP280;62699;50.534;12.784;2022-12-11T08:07:18;95478.47;;;-3.13
73894;BMP280;62699;50.534;12.784;2022-12-11T08:12:19;95484.06;;;-3.40
73894;BMP280;62699;50.534;12.784;2022-12-11T08:17:19;95470.41;;;-3.51
73894;BMP280;62699;50.534;12.784;2022-12-11T08:22:19;95474.72;;;-3.57
73894;BMP280;62699;50.534;12.784;2022-12-11T08:27:20;95463.94;;;-3.46
73894;BMP280;62699;50.534;12.784;2022-12-11T08:32:20;95475.38;;;-3.24
73894;BMP280;62699;50.534;12.784;2022-12-11T08:37:20;95470.47;;;-3.22
73894;BMP280;62699;50.534;12.784;2022-12-11T08:42:21;95465.31;;;-3.42
73894;BMP280;62699;50.534;12.784;2022-12-11T08:47:21;95470.91;;;-3.40
73894;BMP280;62699;50.534;12.784;2022-12-11T08:52:22;95477.78;;;-3.30
73894;BMP280;62699;50.534;12.784;2022-12-11T08:57:23;95483.50;;;-3.47
73894;BMP280;62699;50.534;12.784;2022-12-11T09:02:23;95479.13;;;-3.38
73894;BMP280;62699;50.534;12.784;2022-12-11T09:07:23;95487.13;;;-3.12
73894;BMP280;62699;50.534;12.784;2022-12-11T09:12:24;95483.59;;;-2.93
73894;BMP280;62699;50.534;12.784;2022-12-11T09:17:25;95482.22;;;-2.98
73894;BMP280;62699;50.534;12.784;2022-12-11T09:22:25;95480.00;;;-2.99
73894;BMP280;62699;50.534;12.784;2022-12-11T09:27:25;95482.00;;;-2.62
73894;BMP280;62699;50.534;12.784;2022-12-11T09:32:26;95480.69;;;-2.70
73894;BMP280;62699;50.534;12.784;2022-12-11T09:37:26;95481.16;;;-2.59
73894;BMP280;62699;50.534;12.784;2022-12-11T09:48:24;95470.88;;;-2.28
73894;BMP280;62699;50.534;12.784;2022-12-11T09:53:31;95476.91;;;-1.93
73894;BMP280;62699;50.534;12.784;2022-12-11T09:59:08;95465.00;;;-2.86
73894;BMP280;62699;50.534;12.784;2022-12-11T10:09:35;95458.81;;;-2.54
73894;BMP280;62699;50.534;12.784;2022-12-11T10:15:01;95466.75;;;-2.16
73894;BMP280;62699;50.534;12.784;2022-12-11T10:20:35;95468.22;;;-2.28
73894;BMP280;62699;50.534;12.784;2022-12-11T10:25:46;95467.75;;;-2.01
73894;BMP280;62699;50.534;12.784;2022-12-11T10:36:03;95439.66;;;-2.55
73894;BMP280;62699;50.534;12.784;2022-12-11T10:41:20;95443.44;;;-2.05
73894;BMP280;62699;50.534;12.784;2022-12-11T10:46:26;95428.44;;;-2.33
73894;BMP280;62699;50.534;12.784;2022-12-11T10:56:31;95427.94;;;-2.41
73894;BMP280;62699;50.534;12.784;2022-12-11T11:01:32;95416.88;;;-2.48
73894;BMP280;62699;50.534;12.784;2022-12-11T11:06:33;95406.84;;;-2.66
73894;BMP280;62699;50.534;12.784;2022-12-11T11:11:35;95413.19;;;-2.51
73894;BMP280;62699;50.534;12.784;2022-12-11T11:16:37;95401.31;;;-2.56
73894;BMP280;62699;50.534;12.784;2022-12-11T11:21:47;95393.03;;;-2.83
73894;BMP280;62699;50.534;12.784;2022-12-11T11:26:49;95395.75;;;-2.99
73894;BMP280;62699;50.534;12.784;2022-12-11T11:31:49;95395.00;;;-3.12
73894;BMP280;62699;50.534;12.784;2022-12-11T11:42:42;95376.09;;;-2.69
73894;BMP280;62699;50.534;12.784;2022-12-11T11:48:05;95371.94;;;-2.32
73894;BMP280;62699;50.534;12.784;2022-12-11T11:53:19;95377.06;;;-2.03
73894;BMP280;62699;50.534;12.784;2022-12-11T11:58:24;95372.59;;;-1.81
73894;BMP280;62699;50.534;12.784;2022-12-11T12:03:27;95378.25;;;-1.70
73894;BMP280;62699;50.534;12.784;2022-12-11T12:08:52;95365.16;;;-2.08
73894;BMP280;62699;50.534;12.784;2022-12-11T12:14:18;95363.13;;;-2.26
73894;BMP280;62699;50.534;12.784;2022-12-11T12:19:42;95346.75;;;-2.33
73894;BMP280;62699;50.534;12.784;2022-12-11T12:24:57;95344.81;;;-2.55
73894;BMP280;62699;50.534;12.784;2022-12-11T12:40:29;95354.28;;;-2.82
73894;BMP280;62699;50.534;12.784;2022-12-11T12:50:42;95350.47;;;-3.19
73894;BMP280;62699;50.534;12.784;2022-12-11T12:55:45;95338.00;;;-3.32
73894;BMP280;62699;50.534;12.784;2022-12-11T13:00:46;95333.94;;;-3.20
73894;BMP280;62699;50.534;12.784;2022-12-11T13:06:08;95333.19;;;-3.20
73894;BMP280;62699;50.534;12.784;2022-12-11T13:11:11;95332.81;;;-3.35
73894;BMP280;62699;50.534;12.784;2022-12-11T13:26:30;95332.34;;;-3.59
73894;BMP280;62699;50.534;12.784;2022-12-11T13:31:34;95333.31;;;-3.82
73894;BMP280;62699;50.534;12.784;2022-12-11T13:36:36;95343.50;;;-3.68
73894;BMP280;62699;50.534;12.784;2022-12-11T13:41:37;95343.13;;;-3.99
73894;BMP280;62699;50.534;12.784;2022-12-11T13:46:38;95351.19;;;-3.89
73894;BMP280;62699;50.534;12.784;2022-12-11T13:51:38;95343.63;;;-3.87
73894;BMP280;62699;50.534;12.784;2022-12-11T13:56:39;95349.81;;;-4.10
73894;BMP280;62699;50.534;12.784;2022-12-11T14:01:40;95349.22;;;-4.18
73894;BMP280;62699;50.534;12.784;2022-12-11T14:06:40;95351.28;;;-4.25
73894;BMP280;62699;50.534;12.784;2022-12-11T14:11:41;95356.72;;;-4.33
73894;BMP280;62699;50.534;12.784;2022-12-11T14:16:42;95358.41;;;-4.26
73894;BMP280;62699;50.534;12.784;2022-12-11T14:21:42;95366.22;;;-4.39
73894;BMP280;62699;50.534;12.784;2022-12-11T14:26:49;95361.56;;;-4.31
73894;BMP280;62699;50.534;12.784;2022-12-11T14:31:50;95358.81;;;-4.28
73894;BMP280;62699;50.534;12.784;2022-12-11T14:36:51;95363.50;;;-4.35
73894;BMP280;62699;50.534;12.784;2022-12-11T14:42:19;95358.09;;;-4.28
73894;BMP280;62699;50.534;12.784;2022-12-11T14:47:24;95356.38;;;-4.35
73894;BMP280;62699;50.534;12.784;2022-12-11T14:52:32;95360.22;;;-4.39
73894;BMP280;62699;50.534;12.784;2022-12-11T14:57:38;95357.13;;;-4.50
73894;BMP280;62699;50.534;12.784;2022-12-11T15:02:39;95359.97;;;-4.45
73894;BMP280;62699;50.534;12.784;2022-12-11T15:07:56;95351.53;;;-4.52
73894;BMP280;62699;50.534;12.784;2022-12-11T15:12:57;95355.59;;;-4.68
73894;BMP280;62699;50.534;12.784;2022-12-11T15:17:59;95352.13;;;-4.81
73894;BMP280;62699;50.534;12.784;2022-12-11T15:23:00;95343.75;;;-4.76
73894;BMP280;62699;50.534;12.784;2022-12-11T15:28:01;95356.06;;;-4.89
73894;BMP280;62699;50.534;12.784;2022-12-11T15:38:26;95365.75;;;-4.86
73894;BMP280;62699;50.534;12.784;2022-12-11T15:43:27;95365.41;;;-4.88
73894;BMP280;62699;50.534;12.784;2022-12-11T15:48:28;95368.16;;;-4.95
73894;BMP280;62699;50.534;12.784;2022-12-11T15:53:29;95371.53;;;-4.94
73894;BMP280;62699;50.534;12.784;2022-12-11T15:58:29;95372.66;;;-4.95
73894;BMP280;62699;50.534;12.784;2022-12-11T16:03:30;95374.66;;;-5.00
73894;BMP280;62699;50.534;12.784;2022-12-11T16:08:30;95373.28;;;-4.88
73894;BMP280;62699;50.534;12.784;2022-12-11T16:13:30;95379.47;;;-4.98
73894;BMP280;62699;50.534;12.784;2022-12-11T16:18:31;95380.84;;;-4.90
73894;BMP280;62699;50.534;12.784;2022-12-11T16:23:31;95376.56;;;-4.84
73894;BMP280;62699;50.534;12.784;2022-12-11T16:28:31;95380.59;;;-4.79
73894;BMP280;62699;50.534;12.784;2022-12-11T16:33:33;95374.84;;;-4.74
73894;BMP280;62699;50.534;12.784;2022-12-11T16:38:33;95379.25;;;-4.87
73894;BMP280;62699;50.534;12.784;2022-12-11T16:43:34;95379.41;;;-4.94
73894;BMP280;62699;50.534;12.784;2022-12-11T16:48:35;95382.34;;;-4.92
73894;BMP280;62699;50.534;12.784;2022-12-11T16:53:35;95375.59;;;-4.90
73894;BMP280;62699;50.534;12.784;2022-12-11T16:58:35;95375.91;;;-4.88
73894;BMP280;62699;50.534;12.784;2022-12-11T17:03:36;95366.69;;;-4.96
73894;BMP280;62699;50.534;12.784;2022-12-11T17:08:36;95380.09;;;-4.90
73894;BMP280;62699;50.534;12.784;2022-12-11T17:13:37;95376.91;;;-4.82
73894;BMP280;62699;50.534;12.784;2022-12-11T17:18:38;95383.47;;;-4.90
73894;BMP280;62699;50.534;12.784;2022-12-11T17:23:38;95368.84;;;-4.91
73894;BMP280;62699;50.534;12.784;2022-12-11T17:28:39;95377.19;;;-4.96
73894;BMP280;62699;50.534;12.784;2022-12-11T17:33:39;95385.75;;;-4.92
73894;BMP280;62699;50.534;12.784;2022-12-11T17:38:40;95380.22;;;-4.98
73894;BMP280;62699;50.534;12.784;2022-12-11T17:43:41;95381.44;;;-5.02
73894;BMP280;62699;50.534;12.784;2022-12-11T17:48:41;95378.66;;;-4.95
73894;BMP280;62699;50.534;12.784;2022-12-11T17:53:42;95387.22;;;-4.91
73894;BMP280;62699;50.534;12.784;2022-12-11T17:58:42;95390.63;;;-4.94
73894;BMP280;62699;50.534;12.784;2022-12-11T18:03:42;95386.19;;;-4.97
73894;BMP280;62699;50.534;12.784;2022-12-11T18:08:43;95380.13;;;-4.94
73894;BMP280;62699;50.534;12.784;2022-12-11T18:13:45;95389.84;;;-4.91
73894;BMP280;62699;50.534;12.784;2022-12-11T18:18:46;95386.94;;;-4.97
73894;BMP280;62699;50.534;12.784;2022-12-11T18:23:47;95385.38;;;-4.94
73894;BMP280;62699;50.534;12.784;2022-12-11T18:28:50;95389.97;;;-4.98
73894;BMP280;62699;50.534;12.784;2022-12-11T18:33:51;95389.50;;;-4.93
73894;BMP280;62699;50.534;12.784;2022-12-11T18:38:51;95395.88;;;-4.94
73894;BMP280;62699;50.534;12.784;2022-12-11T18:43:52;95390.19;;;-4.89
73894;BMP280;62699;50.534;12.784;2022-12-11T18:48:52;95388.22;;;-4.85
73894;BMP280;62699;50.534;12.784;2022-12-11T18:53:53;95395.94;;;-4.98
73894;BMP280;62699;50.534;12.784;2022-12-11T18:58:53;95388.25;;;-5.05
73894;BMP280;62699;50.534;12.784;2022-12-11T19:03:56;95388.50;;;-4.99
73894;BMP280;62699;50.534;12.784;2022-12-11T19:08:58;95397.53;;;-5.00
73894;BMP280;62699;50.534;12.784;2022-12-11T19:13:58;95392.13;;;-4.93
73894;BMP280;62699;50.534;12.784;2022-12-11T19:19:02;95391.13;;;-4.99
73894;BMP280;62699;50.534;12.784;2022-12-11T19:24:05;95391.72;;;-5.11
73894;BMP280;62699;50.534;12.784;2022-12-11T19:29:06;95390.25;;;-5.12
73894;BMP280;62699;50.534;12.784;2022-12-11T19:34:06;95406.00;;;-5.12
73894;BMP280;62699;50.534;12.784;2022-12-11T19:39:07;95403.03;;;-5.14
73894;BMP280;62699;50.534;12.784;2022-12-11T19:44:08;95391.84;;;-5.18
73894;BMP280;62699;50.534;12.784;2022-12-11T19:49:09;95397.59;;;-5.23
73894;BMP280;62699;50.534;12.784;2022-12-11T19:54:13;95394.28;;;-5.27
73894;BMP280;62699;50.534;12.784;2022-12-11T19:59:15;95395.75;;;-5.26
73894;BMP280;62699;50.534;12.784;2022-12-11T20:04:16;95399.50;;;-5.27
73894;BMP280;62699;50.534;12.784;2022-12-11T20:09:16;95394.56;;;-5.22
73894;BMP280;62699;50.534;12.784;2022-12-11T20:14:24;95395.00;;;-5.27
73894;BMP280;62699;50.534;12.784;2022-12-11T20:19:25;95394.41;;;-5.35
73894;BMP280;62699;50.534;12.784;2022-12-11T20:24:25;95394.41;;;-5.35
73894;BMP280;62699;50.534;12.784;2022-12-11T20:29:26;95392.25;;;-5.40
73894;BMP280;62699;50.534;12.784;2022-12-11T20:34:26;95397.38;;;-5.33
73894;BMP280;62699;50.534;12.784;2022-12-11T20:39:27;95396.13;;;-5.24
73894;BMP280;62699;50.534;12.784;2022-12-11T20:44:28;95402.28;;;-5.35
73894;BMP280;62699;50.534;12.784;2022-12-11T20:49:28;95394.63;;;-5.25
73894;BMP280;62699;50.534;12.784;2022-12-11T20:54:28;95393.34;;;-5.17
73894;BMP280;62699;50.534;12.784;2022-12-11T20:59:29;95393.50;;;-5.24
73894;BMP280;62699;50.534;12.784;2022-12-11T21:04:30;95394.97;;;-5.23
73894;BMP280;62699;50.534;12.784;2022-12-11T21:09:31;95388.69;;;-5.29
73894;BMP280;62699;50.534;12.784;2022-12-11T21:14:31;95394.56;;;-5.22
73894;BMP280;62699;50.534;12.784;2022-12-11T21:19:31;95383.34;;;-5.22
73894;BMP280;62699;50.534;12.784;2022-12-11T21:24:32;95385.66;;;-5.28
73894;BMP280;62699;50.534;12.784;2022-12-11T21:29:32;95379.38;;;-5.30
73894;BMP280;62699;50.534;12.784;2022-12-11T21:34:32;95389.03;;;-5.27
73894;BMP280;62699;50.534;12.784;2022-12-11T21:39:33;95390.06;;;-5.21
73894;BMP280;62699;50.534;12.784;2022-12-11T21:44:33;95388.84;;;-5.17
73894;BMP280;62699;50.534;12.784;2022-12-11T21:49:33;95382.03;;;-5.14
73894;BMP280;62699;50.534;12.784;2022-12-11T21:54:34;95377.47;;;-5.10
73894;BMP280;62699;50.534;12.784;2022-12-11T21:59:34;95374.50;;;-5.12
73894;BMP280;62699;50.534;12.784;2022-12-11T22:04:35;95374.66;;;-5.19
73894;BMP280;62699;50.534;12.784;2022-12-11T22:09:36;95374.50;;;-5.12
73894;BMP280;62699;50.534;12.784;2022-12-11T22:14:36;95384.66;;;-5.14
73894;BMP280;62699;50.534;12.784;2022-12-11T22:19:37;95385.34;;;-5.10
73894;BMP280;62699;50.534;12.784;2022-12-11T22:24:37;95377.75;;;-5.05
73894;BMP280;62699;50.534;12.784;2022-12-11T22:29:37;95379.28;;;-5.07
73894;BMP280;62699;50.534;12.784;2022-12-11T22:34:38;95375.25;;;-5.12
73894;BMP280;62699;50.534;12.784;2022-12-11T22:39:39;95385.28;;;-5.07
73894;BMP280;62699;50.534;12.784;2022-12-11T22:44:39;95377.47;;;-5.10
73894;BMP280;62699;50.534;12.784;2022-12-11T22:49:40;95378.06;;;-5.03
73894;BMP280;62699;50.534;12.784;2022-12-11T22:54:41;95382.31;;;-5.09
73894;BMP280;62699;50.534;12.784;2022-12-11T22:59:42;95383.53;;;-5.13
73894;BMP280;62699;50.534;12.784;2022-12-11T23:04:42;95380.91;;;-5.13
73894;BMP280;62699;50.534;12.784;2022-12-11T23:09:42;95400.16;;;-5.20
73894;BMP280;62699;50.534;12.784;2022-12-11T23:14:43;95396.38;;;-5.19
73894;BMP280;62699;50.534;12.784;2022-12-11T23:19:43;95394.97;;;-5.23
73894;BMP280;62699;50.534;12.784;2022-12-11T23:24:45;95390.72;;;-5.17
73894;BMP280;62699;50.534;12.784;2022-12-11T23:29:45;95397.03;;;-5.15
73894;BMP280;62699;50.534;12.784;2022-12-11T23:34:45;95400.00;;;-5.13
73894;BMP280;62699;50.534;12.784;2022-12-11T23:39:45;95402.22;;;-5.11
73894;BMP280;62699;50.534;12.784;2022-12-11T23:44:46;95403.72;;;-5.10
73894;BMP280;62699;50.534;12.784;2022-12-11T23:49:46;95411.69;;;-4.98
73894;BMP280;62699;50.534;12.784;2022-12-11T23:54:46;95406.19;;;-5.03
73894;BMP280;62699;50.534;12.784;2022-12-11T23:59:47;95402.03;;;-5.01
